createdAt,value
2022-12-01T00:00:36.663Z,6.80
2022-12-01T00:05:38.321Z,6.70
2022-12-01T00:10:39.939Z,6.70
2022-12-01T00:15:41.555Z,6.70
2022-12-01T00:20:43.260Z,6.70
2022-12-01T00:25:44.919Z,6.70
2022-12-01T00:30:46.534Z,6.70
2022-12-01T00:35:48.181Z,6.70
2022-12-01T00:40:49.817Z,6.70
2022-12-01T00:45:52.138Z,6.70
2022-12-01T00:50:54.865Z,6.70
2022-12-01T00:55:56.957Z,6.70
2022-12-01T01:01:00.626Z,6.70
2022-12-01T01:06:07.188Z,6.60
2022-12-01T01:11:09.310Z,6.60
2022-12-01T01:16:19.202Z,6.60
2022-12-01T01:21:21.984Z,6.60
2022-12-01T01:26:24.882Z,6.60
2022-12-01T01:31:28.564Z,6.70
2022-12-01T01:36:30.318Z,6.70
2022-12-01T01:41:32.005Z,6.70
2022-12-01T01:46:34.922Z,6.70
2022-12-01T01:51:48.872Z,6.70
2022-12-01T01:56:52.077Z,6.60
2022-12-01T02:02:03.100Z,6.60
2022-12-01T02:07:07.107Z,6.60
2022-12-01T02:12:34.628Z,6.60
2022-12-01T02:17:42.024Z,6.60
2022-12-01T02:23:02.839Z,6.60
2022-12-01T02:28:26.282Z,6.60
2022-12-01T02:33:45.295Z,6.60
2022-12-01T02:39:06.327Z,6.50
2022-12-01T02:44:34.228Z,6.50
2022-12-01T02:49:41.984Z,6.50
2022-12-01T02:54:48.404Z,6.50
2022-12-01T02:59:54.282Z,6.50
2022-12-01T03:05:09.988Z,6.50
2022-12-01T03:10:24.303Z,6.50
2022-12-01T03:15:44.425Z,6.50
2022-12-01T03:21:08.291Z,6.50
2022-12-01T03:26:16.240Z,6.50
2022-12-01T03:31:27.597Z,6.50
2022-12-01T03:36:39.441Z,6.60
2022-12-01T03:41:52.827Z,6.50
2022-12-01T03:47:04.263Z,6.40
2022-12-01T03:52:39.626Z,6.50
2022-12-01T03:58:05.673Z,6.40
2022-12-01T04:03:07.556Z,6.40
2022-12-01T04:08:09.322Z,6.50
2022-12-01T04:13:22.630Z,6.40
2022-12-01T04:18:24.438Z,6.40
2022-12-01T04:24:01.385Z,6.50
2022-12-01T04:29:06.170Z,6.50
2022-12-01T04:34:09.515Z,6.40
2022-12-01T04:39:11.123Z,6.40
2022-12-01T04:44:13.179Z,6.40
2022-12-01T04:49:14.847Z,6.50
2022-12-01T04:54:17.250Z,6.40
2022-12-01T04:59:19.025Z,6.50
2022-12-01T05:04:20.693Z,6.40
2022-12-01T05:09:22.355Z,6.50
2022-12-01T05:14:24.053Z,6.40
2022-12-01T05:19:44.518Z,6.40
2022-12-01T05:24:46.104Z,6.50
2022-12-01T05:29:48.251Z,6.40
2022-12-01T05:34:50.052Z,6.40
2022-12-01T05:39:51.703Z,6.40
2022-12-01T05:44:53.618Z,6.40
2022-12-01T05:49:55.301Z,6.40
2022-12-01T05:54:56.973Z,6.40
2022-12-01T05:59:58.728Z,6.40
2022-12-01T06:05:00.421Z,6.40
2022-12-01T06:10:02.737Z,6.40
2022-12-01T06:15:06.135Z,6.40
2022-12-01T06:20:08.829Z,6.30
2022-12-01T06:25:10.817Z,6.30
2022-12-01T06:30:12.839Z,6.30
2022-12-01T06:35:14.604Z,6.30
2022-12-01T06:40:16.320Z,6.30
2022-12-01T06:45:18.058Z,6.30
2022-12-01T06:50:19.743Z,6.30
2022-12-01T06:55:21.754Z,6.40
2022-12-01T07:00:23.818Z,6.40
2022-12-01T07:05:26.065Z,6.30
2022-12-01T07:10:28.100Z,6.40
2022-12-01T07:15:29.858Z,6.40
2022-12-01T07:20:31.563Z,6.40
2022-12-01T07:25:33.319Z,6.30
2022-12-01T07:30:35.192Z,6.30
2022-12-01T07:35:36.990Z,6.30
2022-12-01T07:40:38.743Z,6.30
2022-12-01T07:45:40.438Z,6.30
2022-12-01T07:50:42.170Z,6.30
2022-12-01T07:55:49.289Z,6.40
2022-12-01T08:00:50.984Z,6.40
2022-12-01T08:06:00.487Z,6.40
2022-12-01T08:11:17.632Z,6.40
2022-12-01T08:16:23.701Z,6.30
2022-12-01T08:21:25.714Z,6.30
2022-12-01T08:26:27.682Z,6.40
2022-12-01T08:31:35.855Z,6.40
2022-12-01T08:36:37.732Z,6.30
2022-12-01T08:41:39.543Z,6.40
2022-12-01T08:46:41.249Z,6.40
2022-12-01T08:51:43.022Z,6.40
2022-12-01T08:56:45.668Z,6.40
2022-12-01T09:01:53.138Z,6.40
2022-12-01T09:06:56.295Z,6.40
2022-12-01T09:11:58.232Z,6.40
2022-12-01T09:17:00.020Z,6.40
2022-12-01T09:22:01.732Z,6.50
2022-12-01T09:27:04.461Z,6.50
2022-12-01T09:32:06.208Z,6.50
2022-12-01T09:37:08.051Z,6.50
2022-12-01T09:42:16.297Z,6.50
2022-12-01T09:47:37.599Z,6.60
2022-12-01T09:52:57.234Z,6.50
2022-12-01T09:58:00.979Z,6.60
2022-12-01T10:03:21.056Z,6.60
2022-12-01T10:08:27.234Z,6.60
2022-12-01T10:13:29.728Z,6.60
2022-12-01T10:18:54.807Z,6.60
2022-12-01T10:24:31.583Z,6.60
2022-12-01T10:29:50.079Z,6.60
2022-12-01T10:34:51.979Z,6.60
2022-12-01T10:39:55.562Z,6.60
2022-12-01T10:45:01.207Z,6.60
2022-12-01T10:50:04.052Z,6.60
2022-12-01T10:55:27.787Z,6.60
2022-12-01T11:00:58.586Z,6.60
2022-12-01T11:05:59.784Z,6.60
2022-12-01T11:11:01.559Z,6.60
2022-12-01T11:16:06.182Z,6.60
2022-12-01T11:21:09.761Z,6.60
2022-12-01T11:26:16.061Z,6.50
2022-12-01T11:31:18.276Z,6.60
2022-12-01T11:36:26.050Z,6.60
2022-12-01T11:41:33.140Z,6.60
2022-12-01T11:46:46.314Z,6.70
2022-12-01T11:51:52.228Z,6.80
2022-12-01T11:57:25.281Z,6.80
2022-12-01T12:02:44.185Z,6.90
2022-12-01T12:08:05.700Z,7.00
2022-12-01T12:13:16.638Z,7.00
2022-12-01T12:18:24.505Z,7.10
2022-12-01T12:23:41.158Z,7.10
2022-12-01T12:29:19.895Z,7.10
2022-12-01T12:34:59.435Z,7.00
2022-12-01T12:40:36.086Z,7.00
2022-12-01T12:45:40.813Z,7.00
2022-12-01T12:51:11.631Z,7.00
2022-12-01T12:56:17.092Z,7.00
2022-12-01T13:01:33.690Z,6.90
2022-12-01T13:07:00.490Z,6.90
2022-12-01T13:12:09.764Z,6.90
2022-12-01T13:17:26.412Z,6.90
2022-12-01T13:22:33.044Z,6.90
2022-12-01T13:27:40.430Z,6.90
2022-12-01T13:32:43.067Z,6.90
2022-12-01T13:37:45.055Z,6.90
2022-12-01T13:43:14.551Z,6.90
2022-12-01T13:48:29.424Z,6.80
2022-12-01T13:53:38.498Z,6.90
2022-12-01T13:58:52.105Z,6.80
2022-12-01T14:04:02.626Z,6.80
2022-12-01T14:09:18.354Z,6.80
2022-12-01T14:14:26.180Z,6.80
2022-12-01T14:19:48.831Z,6.70
2022-12-01T14:24:53.154Z,6.70
2022-12-01T14:29:54.881Z,6.70
2022-12-01T14:35:00.622Z,6.70
2022-12-01T14:40:18.689Z,6.60
2022-12-01T14:45:39.555Z,6.70
2022-12-01T14:50:54.616Z,6.60
2022-12-01T14:56:00.641Z,6.60
2022-12-01T15:01:10.174Z,6.50
2022-12-01T15:06:24.364Z,6.50
2022-12-01T15:11:26.400Z,6.50
2022-12-01T15:16:32.270Z,6.50
2022-12-01T15:21:34.024Z,6.40
2022-12-01T15:26:51.013Z,6.40
2022-12-01T15:31:55.350Z,6.40
2022-12-01T15:36:58.363Z,6.30
2022-12-01T15:42:00.770Z,6.30
2022-12-01T15:47:30.702Z,6.30
2022-12-01T15:52:41.661Z,6.20
2022-12-01T15:57:46.566Z,6.20
2022-12-01T16:02:57.262Z,6.20
2022-12-01T16:08:14.080Z,6.10
2022-12-01T16:13:58.013Z,6.10
2022-12-01T16:19:02.168Z,6.10
2022-12-01T16:24:05.394Z,6.10
2022-12-01T16:29:21.637Z,6.10
2022-12-01T16:34:44.828Z,6.10
2022-12-01T16:39:46.188Z,6.10
2022-12-01T16:44:49.394Z,6.00
2022-12-01T16:49:52.550Z,6.00
2022-12-01T16:54:54.239Z,6.00
2022-12-01T16:59:55.891Z,6.00
2022-12-01T17:04:57.641Z,6.00
2022-12-01T17:09:59.490Z,5.90
2022-12-01T17:15:01.171Z,5.90
2022-12-01T17:20:04.973Z,5.90
2022-12-01T17:25:09.460Z,5.80
2022-12-01T17:30:11.947Z,5.80
2022-12-01T17:35:13.677Z,5.80
2022-12-01T17:40:15.596Z,5.80
2022-12-01T17:45:17.809Z,5.70
2022-12-01T17:50:19.560Z,5.70
2022-12-01T17:55:21.239Z,5.80
2022-12-01T18:00:23.237Z,5.80
2022-12-01T18:05:25.046Z,5.80
2022-12-01T18:10:26.796Z,5.70
2022-12-01T18:15:33.257Z,5.70
2022-12-01T18:20:43.319Z,5.70
2022-12-01T18:25:44.984Z,5.70
2022-12-01T18:30:46.754Z,5.70
2022-12-01T18:35:48.463Z,5.70
2022-12-01T18:40:50.574Z,5.70
2022-12-01T18:45:52.279Z,5.70
2022-12-01T18:50:59.238Z,5.60
2022-12-01T18:56:03.513Z,5.60
2022-12-01T19:01:20.868Z,5.70
2022-12-01T19:06:23.578Z,5.60
2022-12-01T19:11:25.231Z,5.60
2022-12-01T19:16:27.627Z,5.60
2022-12-01T19:21:29.339Z,5.50
2022-12-01T19:26:31.008Z,5.50
2022-12-01T19:31:32.840Z,5.50
2022-12-01T19:36:34.600Z,5.50
2022-12-01T19:41:36.460Z,5.50
2022-12-01T19:46:38.198Z,5.50
2022-12-01T19:51:40.543Z,5.50
2022-12-01T19:56:42.648Z,5.50
2022-12-01T20:01:44.524Z,5.40
2022-12-01T20:06:46.378Z,5.40
2022-12-01T20:11:48.222Z,5.40
2022-12-01T20:16:49.964Z,5.50
2022-12-01T20:21:51.810Z,5.50
2022-12-01T20:26:56.593Z,5.40
2022-12-01T20:32:01.053Z,5.40
2022-12-01T20:37:04.425Z,5.40
2022-12-01T20:42:06.205Z,5.50
2022-12-01T20:47:07.915Z,5.40
2022-12-01T20:52:09.564Z,5.40
2022-12-01T20:57:11.268Z,5.30
2022-12-01T21:02:12.954Z,5.40
2022-12-01T21:07:14.699Z,5.40
2022-12-01T21:12:36.240Z,5.40
2022-12-01T21:17:43.760Z,5.30
2022-12-01T21:22:46.064Z,5.30
2022-12-01T21:27:47.758Z,5.30
2022-12-01T21:32:49.945Z,5.20
2022-12-01T21:37:58.055Z,5.20
2022-12-01T21:43:12.904Z,5.30
2022-12-01T21:48:22.971Z,5.20
2022-12-01T21:53:32.062Z,5.20
2022-12-01T21:58:37.261Z,5.20
2022-12-01T22:03:46.024Z,5.10
2022-12-01T22:08:51.642Z,5.10
2022-12-01T22:14:01.499Z,5.10
2022-12-01T22:19:32.068Z,5.00
2022-12-01T22:24:54.132Z,5.00
2022-12-01T22:30:11.100Z,5.00
2022-12-01T22:35:21.758Z,5.00
2022-12-01T22:40:48.005Z,4.90
2022-12-01T22:45:59.456Z,4.90
2022-12-01T22:51:20.969Z,4.90
2022-12-01T22:56:50.231Z,4.90
2022-12-01T23:01:57.360Z,4.90
2022-12-01T23:07:00.681Z,4.90
2022-12-01T23:12:11.657Z,4.80
2022-12-01T23:17:18.599Z,4.80
2022-12-01T23:22:20.347Z,4.80
2022-12-01T23:27:22.007Z,4.80
2022-12-01T23:32:23.640Z,4.80
2022-12-01T23:37:39.894Z,4.80
2022-12-01T23:42:42.092Z,4.80
2022-12-01T23:47:43.752Z,4.80
2022-12-01T23:52:46.049Z,4.80
2022-12-01T23:57:48.282Z,4.70
